Time;durP1;ratioP1;P1;durP2;ratioP2;P2;SDS_P1;SDS_P2;PMS_P1;PMS_P2;Temp;Humidity;BMP_temperature;BMP_pressure;BME280_temperature;BME280_humidity;BME280_pressure;Samples;Min_cycle;Max_cycle;Signal;HPM_P1;HPM_P2
2023/03/09 00:00:17;;;;;;;1.73;1.38;;;;;;;;;;1044701;28;20071;-77
2023/03/09 00:00:47;;;;;;;4.78;2.05;;;;;;;;;;1046355;28;20041;-77
2023/03/09 00:01:19;;;;;;;1.80;1.48;;;;;;;;;;1045239;28;20087;-77
2023/03/09 00:01:50;;;;;;;3.63;2.25;;;;;;;;;;1045495;28;20027;-77
2023/03/09 00:02:21;;;;;;;5.75;1.92;;;;;;;;;;1045481;28;20396;-77
2023/03/09 00:02:52;;;;;;;4.47;2.00;;;;;;;;;;1046614;28;20021;-77
2023/03/09 00:03:22;;;;;;;2.33;1.65;;;;;;;;;;1044546;28;20487;-77
2023/03/09 00:03:54;;;;;;;3.90;2.15;;;;;;;;;;1045656;28;20018;-77
2023/03/09 00:04:24;;;;;;;4.28;2.42;;;;;;;;;;1046237;28;20050;-77
2023/03/09 00:04:55;;;;;;;3.22;1.50;;;;;;;;;;1044199;28;20075;-77
2023/03/09 00:05:25;;;;;;;4.70;2.38;;;;;;;;;;1045490;28;20029;-77
2023/03/09 00:05:57;;;;;;;15.27;2.67;;;;;;;;;;1043071;28;20476;-77
2023/03/09 00:06:28;;;;;;;5.18;2.65;;;;;;;;;;1046768;28;20043;-77
2023/03/09 00:06:59;;;;;;;3.80;2.35;;;;;;;;;;1046395;28;20059;-77
2023/03/09 00:07:30;;;;;;;8.30;2.92;;;;;;;;;;1046144;28;20093;-77
2023/03/09 00:08:01;;;;;;;5.20;2.03;;;;;;;;;;1045510;28;20032;-77
2023/03/09 00:08:32;;;;;;;1.20;0.60;;;;;;;;;;1043666;28;20048;-77
2023/03/09 00:09:03;;;;;;;2.72;1.42;;;;;;;;;;1039761;28;20405;-78
2023/03/09 00:09:34;;;;;;;4.18;2.10;;;;;;;;;;1039725;28;20034;-77
2023/03/09 00:10:05;;;;;;;12.07;2.30;;;;;;;;;;1044562;28;20717;-78
2023/03/09 00:10:39;;;;;;;2.72;1.30;;;;;;;;;;1044034;28;20039;-78
2023/03/09 00:11:10;;;;;;;3.15;1.83;;;;;;;;;;1046670;28;20024;-77
2023/03/09 00:11:41;;;;;;;7.50;1.70;;;;;;;;;;1046169;28;20021;-77
2023/03/09 00:12:12;;;;;;;2.83;1.58;;;;;;;;;;1043821;28;20025;-77
2023/03/09 00:12:43;;;;;;;2.92;1.55;;;;;;;;;;1043364;28;20262;-77
2023/03/09 00:13:13;;;;;;;2.00;1.23;;;;;;;;;;1043911;28;20024;-77
2023/03/09 00:13:45;;;;;;;3.03;1.17;;;;;;;;;;1046496;28;20122;-77
2023/03/09 00:14:16;;;;;;;3.58;2.08;;;;;;;;;;1044693;28;20029;-77
2023/03/09 00:14:50;;;;;;;3.40;1.88;;;;;;;;;;1046710;28;20021;-77
2023/03/09 00:15:21;;;;;;;2.72;1.70;;;;;;;;;;1046074;28;20029;-77
2023/03/09 00:15:51;;;;;;;2.75;1.20;;;;;;;;;;1046934;28;20108;-78
2023/03/09 00:16:23;;;;;;;9.23;2.33;;;;;;;;;;1043766;28;20477;-77
2023/03/09 00:16:54;;;;;;;7.13;2.55;;;;;;;;;;1044001;28;20039;-77
2023/03/09 00:17:24;;;;;;;3.15;1.90;;;;;;;;;;1047734;28;20036;-78
2023/03/09 00:17:55;;;;;;;3.13;2.22;;;;;;;;;;1044484;28;20176;-78
2023/03/09 00:18:25;;;;;;;4.80;2.00;;;;;;;;;;1046820;28;20407;-77
2023/03/09 00:18:57;;;;;;;3.80;1.92;;;;;;;;;;1041108;28;20032;-77
2023/03/09 00:19:30;;;;;;;4.75;2.35;;;;;;;;;;1041373;28;20428;-77
2023/03/09 00:20:14;;;;;;;7.88;2.40;;;;;;;;;;1042579;28;20025;-77
2023/03/09 00:20:44;;;;;;;2.80;2.20;;;;;;;;;;1042836;28;20043;-77
2023/03/09 00:21:34;;;;;;;5.38;2.88;;;;;;;;;;1042082;28;20013;-77
2023/03/09 00:22:04;;;;;;;4.05;1.80;;;;;;;;;;1042099;28;20599;-77
2023/03/09 00:22:35;;;;;;;3.08;1.42;;;;;;;;;;1043859;28;20025;-77
2023/03/09 00:23:08;;;;;;;3.63;1.88;;;;;;;;;;1041838;28;20104;-77
2023/03/09 00:23:39;;;;;;;9.15;3.05;;;;;;;;;;1041235;28;20029;-77
2023/03/09 00:24:16;;;;;;;2.20;1.52;;;;;;;;;;1039639;28;20540;-77
2023/03/09 00:24:46;;;;;;;4.65;1.67;;;;;;;;;;1042734;28;20475;-77
2023/03/09 00:25:18;;;;;;;6.32;2.38;;;;;;;;;;1045195;28;20057;-77
2023/03/09 00:25:48;;;;;;;13.50;2.90;;;;;;;;;;1045309;28;20481;-77
2023/03/09 00:26:19;;;;;;;4.15;1.88;;;;;;;;;;1046546;28;20103;-77
2023/03/09 00:26:51;;;;;;;6.93;3.13;;;;;;;;;;1045367;28;20124;-77
2023/03/09 00:27:21;;;;;;;3.35;2.47;;;;;;;;;;1042678;28;20017;-78
2023/03/09 00:27:52;;;;;;;6.47;3.13;;;;;;;;;;1039391;28;20013;-78
2023/03/09 00:28:23;;;;;;;2.92;1.33;;;;;;;;;;1039824;28;20033;-77
2023/03/09 00:28:53;;;;;;;4.32;2.75;;;;;;;;;;1043668;28;20039;-78
2023/03/09 00:29:25;;;;;;;3.85;2.92;;;;;;;;;;1039568;28;20027;-78
2023/03/09 00:29:55;;;;;;;3.75;3.33;;;;;;;;;;1039351;28;20021;-78
2023/03/09 00:30:26;;;;;;;5.45;2.13;;;;;;;;;;1035533;28;20018;-77
2023/03/09 00:31:00;;;;;;;3.55;2.40;;;;;;;;;;1035608;28;20034;-78
2023/03/09 00:31:31;;;;;;;8.02;3.13;;;;;;;;;;1038003;28;20021;-77
2023/03/09 00:32:02;;;;;;;2.72;2.17;;;;;;;;;;1040075;28;20024;-77
2023/03/09 00:32:32;;;;;;;3.13;1.83;;;;;;;;;;1043620;28;20017;-77
2023/03/09 00:33:03;;;;;;;3.95;1.45;;;;;;;;;;1043733;28;20024;-77
2023/03/09 00:33:34;;;;;;;3.30;2.20;;;;;;;;;;1043603;28;20025;-77
2023/03/09 00:34:05;;;;;;;6.78;1.35;;;;;;;;;;1040880;28;20559;-78
2023/03/09 00:34:35;;;;;;;4.78;3.13;;;;;;;;;;1041117;28;20471;-77
2023/03/09 00:35:08;;;;;;;3.90;1.48;;;;;;;;;;1041920;28;20033;-77
2023/03/09 00:35:38;;;;;;;4.03;1.58;;;;;;;;;;1042393;28;20028;-77
2023/03/09 00:36:12;;;;;;;3.22;1.40;;;;;;;;;;1046669;28;20388;-77
2023/03/09 00:36:43;;;;;;;4.45;2.88;;;;;;;;;;1047302;28;20025;-77
2023/03/09 00:37:14;;;;;;;4.55;2.33;;;;;;;;;;1042123;28;20028;-77
2023/03/09 00:37:46;;;;;;;2.75;1.52;;;;;;;;;;1043484;28;20075;-77
2023/03/09 00:38:16;;;;;;;5.63;1.92;;;;;;;;;;1043689;28;20095;-78
2023/03/09 00:40:18;;;;;;;5.43;1.67;;;;;;;;;;1031155;28;20125;-79
2023/03/09 00:40:54;;;;;;;3.85;1.40;;;;;;;;;;1038767;28;20500;-79
2023/03/09 00:41:36;;;;;;;1.73;1.20;;;;;;;;;;1005304;28;20111;-78
2023/03/09 00:43:07;;;;;;;7.75;2.17;;;;;;;;;;1040708;28;20041;-78
2023/03/09 00:43:37;;;;;;;3.85;1.75;;;;;;;;;;1039239;28;20025;-77
2023/03/09 00:44:08;;;;;;;3.78;2.03;;;;;;;;;;1039552;28;20022;-78
2023/03/09 00:44:38;;;;;;;6.80;2.20;;;;;;;;;;1039172;28;20135;-77
2023/03/09 00:45:09;;;;;;;5.30;1.98;;;;;;;;;;1039596;28;20523;-77
2023/03/09 00:45:40;;;;;;;4.05;1.98;;;;;;;;;;1042528;28;20190;-77
2023/03/09 00:46:11;;;;;;;8.02;2.38;;;;;;;;;;1042490;28;20087;-77
2023/03/09 00:46:42;;;;;;;2.75;1.98;;;;;;;;;;1039213;28;20029;-78
2023/03/09 00:47:47;;;;;;;4.60;2.72;;;;;;;;;;1031339;28;21120;-77
2023/03/09 00:48:23;;;;;;;8.98;2.58;;;;;;;;;;1032172;28;20528;-78
2023/03/09 00:48:55;;;;;;;3.25;2.05;;;;;;;;;;1032428;28;20021;-78
2023/03/09 00:49:26;;;;;;;3.20;2.05;;;;;;;;;;1058281;23;20135;-78
2023/03/09 00:52:20;;;;;;;11.40;2.53;;;;;;;;;;1032910;28;20061;-77
2023/03/09 00:52:50;;;;;;;3.67;1.75;;;;;;;;;;1033523;28;20116;-77
2023/03/09 00:53:21;;;;;;;2.55;1.50;;;;;;;;;;1037251;28;20112;-77
2023/03/09 00:53:52;;;;;;;2.15;0.80;;;;;;;;;;1033043;28;20530;-78
2023/03/09 00:54:22;;;;;;;3.50;1.65;;;;;;;;;;1033186;28;20038;-77
2023/03/09 00:54:53;;;;;;;5.13;3.17;;;;;;;;;;1033677;28;20026;-77
2023/03/09 00:55:23;;;;;;;4.40;3.03;;;;;;;;;;1034009;28;20034;-77
2023/03/09 00:55:54;;;;;;;2.15;1.83;;;;;;;;;;1031913;28;20546;-77
2023/03/09 00:56:26;;;;;;;8.20;4.28;;;;;;;;;;1039080;28;20037;-77
2023/03/09 00:56:56;;;;;;;7.45;4.43;;;;;;;;;;1037176;28;20013;-77
2023/03/09 00:57:27;;;;;;;12.70;4.45;;;;;;;;;;1036862;28;20505;-77
2023/03/09 00:57:58;;;;;;;10.88;6.55;;;;;;;;;;1036115;28;20322;-77
2023/03/09 00:58:29;;;;;;;12.52;6.15;;;;;;;;;;1036562;28;20018;-77
2023/03/09 00:59:00;;;;;;;26.50;10.68;;;;;;;;;;1032396;28;20025;-77
2023/03/09 00:59:30;;;;;;;58.63;21.45;;;;;;;;;;1031251;28;20022;-77
2023/03/09 01:00:01;;;;;;;64.15;28.77;;;;;;;;;;1029309;28;20034;-77
2023/03/09 01:00:33;;;;;;;51.83;24.15;;;;;;;;;;1027989;28;20097;-77
2023/03/09 01:01:07;;;;;;;58.40;26.35;;;;;;;;;;1026477;28;20105;-77
2023/03/09 01:01:39;;;;;;;39.50;18.38;;;;;;;;;;1028401;28;20581;-78
2023/03/09 01:02:40;;;;;;;26.30;14.63;;;;;;;;;;1033533;23;20062;-78
2023/03/09 01:03:11;;;;;;;20.42;9.55;;;;;;;;;;1026284;28;20475;-78
2023/03/09 01:03:42;;;;;;;16.38;6.75;;;;;;;;;;1027038;28;20114;-78
2023/03/09 01:04:12;;;;;;;22.38;10.50;;;;;;;;;;1032167;28;20034;-78
2023/03/09 01:04:43;;;;;;;18.20;7.25;;;;;;;;;;1030936;28;20082;-78
2023/03/09 01:05:13;;;;;;;23.13;9.77;;;;;;;;;;1034133;28;20032;-78
2023/03/09 01:05:44;;;;;;;17.85;6.78;;;;;;;;;;1028809;28;20074;-78
2023/03/09 01:06:15;;;;;;;17.77;8.00;;;;;;;;;;1029173;28;20468;-79
2023/03/09 01:06:46;;;;;;;15.50;6.32;;;;;;;;;;1025993;28;20089;-78
2023/03/09 01:07:17;;;;;;;10.02;4.32;;;;;;;;;;1026558;28;20102;-78
2023/03/09 01:07:49;;;;;;;12.10;4.82;;;;;;;;;;1031647;28;20386;-79
2023/03/09 01:09:49;;;;;;;1.27;1.10;;;;;;;;;;1032003;28;20055;-78
2023/03/09 01:11:00;;;;;;;;;;;;;;;;;;1099373;23;20045;-79
2023/03/09 01:11:32;;;;;;;2.78;1.27;;;;;;;;;;1029228;28;20401;-78
2023/03/09 01:12:03;;;;;;;1.35;0.65;;;;;;;;;;1030748;28;20109;-78
2023/03/09 01:12:36;;;;;;;3.42;1.90;;;;;;;;;;1026470;28;20382;-78
2023/03/09 01:13:09;;;;;;;4.70;1.67;;;;;;;;;;1026867;28;20384;-78
2023/03/09 01:13:42;;;;;;;0.93;0.73;;;;;;;;;;1030073;28;20034;-78
2023/03/09 01:16:33;;;;;;;2.42;1.30;;;;;;;;;;987969;23;20133;-78
2023/03/09 01:17:43;;;;;;;;;;;;;;;;;;1101791;23;20388;-78
2023/03/09 01:19:00;;;;;;;2.67;1.38;;;;;;;;;;1086794;23;20050;-77
2023/03/09 01:19:33;;;;;;;2.75;2.33;;;;;;;;;;1032551;28;20132;-78
2023/03/09 01:20:04;;;;;;;2.40;1.40;;;;;;;;;;1034167;28;20056;-78
2023/03/09 01:20:35;;;;;;;1.98;0.68;;;;;;;;;;1036327;28;20038;-78
2023/03/09 01:21:06;;;;;;;1.95;1.40;;;;;;;;;;1034879;28;20014;-79
2023/03/09 01:21:36;;;;;;;3.90;0.80;;;;;;;;;;1039129;28;20068;-78
2023/03/09 01:22:07;;;;;;;1.88;1.67;;;;;;;;;;1037216;28;20022;-78
2023/03/09 01:22:37;;;;;;;4.70;0.52;;;;;;;;;;1030601;28;20032;-78
2023/03/09 01:23:08;;;;;;;5.63;3.10;;;;;;;;;;1027232;28;20027;-78
2023/03/09 01:23:39;;;;;;;18.67;10.13;;;;;;;;;;1030905;28;20026;-78
2023/03/09 01:24:10;;;;;;;14.38;7.38;;;;;;;;;;1030403;28;20509;-78
2023/03/09 01:24:40;;;;;;;14.65;8.10;;;;;;;;;;1034849;28;20092;-79
2023/03/09 01:25:11;;;;;;;14.30;7.15;;;;;;;;;;1035261;28;20025;-78
2023/03/09 01:25:42;;;;;;;10.02;6.03;;;;;;;;;;1034970;28;20057;-79
2023/03/09 01:26:13;;;;;;;15.00;8.10;;;;;;;;;;1030804;28;20148;-78
2023/03/09 01:26:43;;;;;;;9.55;6.18;;;;;;;;;;1030450;28;20144;-78
2023/03/09 01:27:14;;;;;;;10.27;6.72;;;;;;;;;;1030949;28;20070;-78
2023/03/09 01:27:49;;;;;;;10.43;5.70;;;;;;;;;;1033794;28;20069;-79
2023/03/09 01:28:23;;;;;;;10.48;5.05;;;;;;;;;;1159662;23;20069;-79
2023/03/09 01:28:56;;;;;;;5.55;2.88;;;;;;;;;;1044626;23;21188;-79
2023/03/09 01:29:32;;;;;;;5.97;1.77;;;;;;;;;;1033758;28;20033;-79
2023/03/09 01:30:03;;;;;;;4.85;2.88;;;;;;;;;;1034979;28;20481;-79
2023/03/09 01:30:42;;;;;;;8.20;3.03;;;;;;;;;;1036854;28;20029;-80
2023/03/09 01:31:15;;;;;;;1.83;1.52;;;;;;;;;;978527;23;20840;-78
2023/03/09 01:31:48;;;;;;;3.42;1.50;;;;;;;;;;1036340;28;20030;-80
2023/03/09 01:32:25;;;;;;;7.07;2.28;;;;;;;;;;1038662;28;20102;-80
2023/03/09 01:33:10;;;;;;;10.52;3.08;;;;;;;;;;1024232;28;20506;-80
2023/03/09 01:33:52;;;;;;;5.30;2.85;;;;;;;;;;1048227;23;20092;-79
2023/03/09 01:34:24;;;;;;;4.53;2.35;;;;;;;;;;1044967;23;20152;-79
2023/03/09 01:34:55;;;;;;;3.90;2.55;;;;;;;;;;1052746;23;20017;-79
2023/03/09 01:35:26;;;;;;;5.28;2.88;;;;;;;;;;1032115;28;20018;-78
2023/03/09 01:35:56;;;;;;;12.60;4.60;;;;;;;;;;1035401;28;20057;-79
2023/03/09 01:36:28;;;;;;;4.88;2.35;;;;;;;;;;1028970;28;20026;-78
2023/03/09 01:37:01;;;;;;;5.65;2.85;;;;;;;;;;1031500;28;20089;-81
2023/03/09 01:37:33;;;;;;;6.32;2.60;;;;;;;;;;1031762;28;20057;-80
2023/03/09 01:38:03;;;;;;;6.38;3.35;;;;;;;;;;1032481;28;20381;-79
2023/03/09 01:38:35;;;;;;;7.28;4.05;;;;;;;;;;1032074;28;20406;-78
2023/03/09 01:39:31;;;;;;;2.08;1.25;;;;;;;;;;1031587;28;20053;-78
2023/03/09 01:40:06;;;;;;;4.10;2.05;;;;;;;;;;1032258;28;20033;-78
2023/03/09 01:40:36;;;;;;;6.30;3.05;;;;;;;;;;1039114;28;20072;-77
2023/03/09 01:41:07;;;;;;;8.90;2.60;;;;;;;;;;1038121;28;20025;-77
2023/03/09 01:41:38;;;;;;;4.03;2.65;;;;;;;;;;1034840;28;20732;-77
2023/03/09 01:42:08;;;;;;;6.68;3.28;;;;;;;;;;1035325;28;20515;-78
2023/03/09 01:42:39;;;;;;;3.55;1.80;;;;;;;;;;1039005;28;20025;-78
2023/03/09 01:43:28;;;;;;;5.57;2.70;;;;;;;;;;1038797;28;20026;-77
2023/03/09 01:43:59;;;;;;;3.55;1.70;;;;;;;;;;1039512;28;20398;-78
2023/03/09 01:45:18;;;;;;;4.88;2.17;;;;;;;;;;1034073;28;20042;-78
2023/03/09 01:47:41;;;;;;;6.40;2.72;;;;;;;;;;1034943;28;20007;-77
2023/03/09 01:48:12;;;;;;;6.00;2.83;;;;;;;;;;1036279;28;20589;-78
2023/03/09 01:48:43;;;;;;;3.75;2.35;;;;;;;;;;1035028;28;20026;-78
2023/03/09 01:49:13;;;;;;;14.57;3.47;;;;;;;;;;1034850;28;20034;-77
2023/03/09 01:49:46;;;;;;;9.32;2.42;;;;;;;;;;1039053;28;20123;-78
2023/03/09 01:50:19;;;;;;;6.90;3.00;;;;;;;;;;1034507;28;20137;-77
2023/03/09 01:50:50;;;;;;;10.95;2.72;;;;;;;;;;1033788;28;20044;-77
2023/03/09 01:51:21;;;;;;;7.07;3.53;;;;;;;;;;1034630;28;20064;-78
2023/03/09 01:51:57;;;;;;;8.77;2.53;;;;;;;;;;1027134;28;20501;-77
2023/03/09 01:52:30;;;;;;;11.40;2.67;;;;;;;;;;1031390;28;20037;-77
2023/03/09 01:53:04;;;;;;;4.78;2.55;;;;;;;;;;1027360;28;20511;-78
2023/03/09 01:53:35;;;;;;;10.85;3.33;;;;;;;;;;1031989;28;20034;-77
2023/03/09 01:54:07;;;;;;;9.88;3.53;;;;;;;;;;1034939;28;20028;-78
2023/03/09 01:54:37;;;;;;;4.40;3.33;;;;;;;;;;1031400;28;20251;-78
2023/03/09 01:55:12;;;;;;;9.20;2.72;;;;;;;;;;1030236;28;21087;-77
2023/03/09 01:55:46;;;;;;;8.63;1.98;;;;;;;;;;1034937;28;20029;-78
2023/03/09 01:56:18;;;;;;;3.20;2.63;;;;;;;;;;1036505;28;20032;-77
2023/03/09 01:56:51;;;;;;;4.10;2.72;;;;;;;;;;1037786;28;20036;-77
2023/03/09 01:57:25;;;;;;;4.13;1.60;;;;;;;;;;1039550;28;20053;-78
2023/03/09 01:57:59;;;;;;;7.05;3.70;;;;;;;;;;1036558;28;20060;-78
2023/03/09 01:58:31;;;;;;;4.47;2.25;;;;;;;;;;1036157;28;20440;-77
2023/03/09 01:59:03;;;;;;;2.40;1.30;;;;;;;;;;1037438;28;20033;-79
2023/03/09 01:59:34;;;;;;;3.47;2.15;;;;;;;;;;1034679;28;20040;-78
2023/03/09 02:00:07;;;;;;;3.22;2.08;;;;;;;;;;1030969;28;20565;-78
2023/03/09 02:00:40;;;;;;;4.70;1.77;;;;;;;;;;1034110;28;20029;-77
2023/03/09 02:01:11;;;;;;;3.42;2.25;;;;;;;;;;1035417;28;20083;-77
2023/03/09 02:01:41;;;;;;;3.65;2.58;;;;;;;;;;1034878;28;20135;-77
2023/03/09 02:02:13;;;;;;;3.53;1.88;;;;;;;;;;1039332;28;20025;-78
2023/03/09 02:03:05;;;;;;;3.85;2.35;;;;;;;;;;1053662;23;20067;-77
2023/03/09 02:03:38;;;;;;;3.97;2.22;;;;;;;;;;1031790;28;20528;-78
2023/03/09 02:04:12;;;;;;;3.83;1.98;;;;;;;;;;1029389;28;20120;-77
2023/03/09 02:04:48;;;;;;;7.05;2.22;;;;;;;;;;1033072;28;20018;-78
2023/03/09 02:05:24;;;;;;;4.68;3.38;;;;;;;;;;1032991;28;20129;-78
2023/03/09 02:05:56;;;;;;;4.80;2.38;;;;;;;;;;1029842;28;20402;-78
2023/03/09 02:06:28;;;;;;;5.70;2.25;;;;;;;;;;1028550;28;20054;-78
2023/03/09 02:07:01;;;;;;;1.92;1.33;;;;;;;;;;1029753;28;20117;-78
2023/03/09 02:07:36;;;;;;;1.88;1.33;;;;;;;;;;1027467;28;20470;-78
2023/03/09 02:08:07;;;;;;;6.75;2.85;;;;;;;;;;1027075;28;20054;-78
2023/03/09 02:08:42;;;;;;;1.67;1.15;;;;;;;;;;1031133;28;20078;-78
2023/03/09 02:09:17;;;;;;;5.40;2.50;;;;;;;;;;1028108;28;20035;-78
2023/03/09 02:09:58;;;;;;;5.57;2.80;;;;;;;;;;1023037;28;20031;-78
2023/03/09 02:10:36;;;;;;;3.83;2.28;;;;;;;;;;1027001;28;20034;-78
2023/03/09 02:11:09;;;;;;;7.60;2.97;;;;;;;;;;1027587;28;20030;-78
2023/03/09 02:11:40;;;;;;;3.88;1.73;;;;;;;;;;1030666;28;20103;-79
2023/03/09 02:12:13;;;;;;;4.95;2.85;;;;;;;;;;1030997;28;20506;-79
2023/03/09 02:12:52;;;;;;;4.45;3.08;;;;;;;;;;1025584;28;20061;-79
2023/03/09 02:13:29;;;;;;;8.05;2.83;;;;;;;;;;1030041;28;20026;-78
2023/03/09 02:14:00;;;;;;;3.08;1.83;;;;;;;;;;1032628;28;20026;-78
2023/03/09 02:14:31;;;;;;;4.78;2.58;;;;;;;;;;1029612;28;20026;-79
2023/03/09 02:15:05;;;;;;;7.75;3.63;;;;;;;;;;1029110;28;20027;-79
2023/03/09 02:15:36;;;;;;;5.15;2.20;;;;;;;;;;1025765;28;20035;-79
2023/03/09 02:16:06;;;;;;;7.80;3.42;;;;;;;;;;1026450;28;20117;-79
2023/03/09 02:16:37;;;;;;;5.25;2.40;;;;;;;;;;1029205;28;20530;-78
2023/03/09 02:17:09;;;;;;;8.15;3.83;;;;;;;;;;1033167;28;20061;-78
2023/03/09 02:17:40;;;;;;;8.07;4.38;;;;;;;;;;1036691;28;20025;-78
2023/03/09 02:18:11;;;;;;;10.80;4.30;;;;;;;;;;1037180;28;20568;-78
2023/03/09 02:18:42;;;;;;;10.52;3.40;;;;;;;;;;1036809;28;20498;-78
2023/03/09 02:19:30;;;;;;;4.13;2.15;;;;;;;;;;1035661;28;20539;-79
2023/03/09 02:20:30;;;;;;;6.47;3.55;;;;;;;;;;1035554;28;20078;-79
2023/03/09 02:21:00;;;;;;;;;;;;;;;;;;1025960;28;20066;-78
2023/03/09 02:21:34;;;;;;;7.88;4.00;;;;;;;;;;1035859;28;19917;-79
2023/03/09 02:22:05;;;;;;;8.65;4.00;;;;;;;;;;1035856;28;20026;-78
2023/03/09 02:22:37;;;;;;;8.73;5.00;;;;;;;;;;1032443;28;20026;-79
2023/03/09 02:23:16;;;;;;;11.88;4.47;;;;;;;;;;1033629;28;20026;-78
2023/03/09 02:24:05;;;;;;;9.68;4.18;;;;;;;;;;1033287;28;20097;-78
2023/03/09 02:24:54;;;;;;;13.27;5.63;;;;;;;;;;1034306;28;20032;-79
2023/03/09 02:25:40;;;;;;;21.00;5.50;;;;;;;;;;1037818;28;20057;-78
2023/03/09 02:26:29;;;;;;;13.13;4.13;;;;;;;;;;1035963;28;20414;-79
2023/03/09 02:27:01;;;;;;;11.25;3.45;;;;;;;;;;1031439;28;20490;-79
2023/03/09 02:27:32;;;;;;;12.57;4.63;;;;;;;;;;1031914;28;20030;-78
2023/03/09 02:28:03;;;;;;;7.97;3.72;;;;;;;;;;1031892;28;20026;-79
2023/03/09 02:28:34;;;;;;;18.05;6.47;;;;;;;;;;1031107;28;20026;-78
2023/03/09 02:29:05;;;;;;;11.15;5.60;;;;;;;;;;1029747;28;20026;-78
2023/03/09 02:29:36;;;;;;;14.68;5.40;;;;;;;;;;1027438;28;20426;-78
2023/03/09 02:30:07;;;;;;;16.85;6.55;;;;;;;;;;1029467;28;20067;-79
2023/03/09 02:30:40;;;;;;;22.20;8.10;;;;;;;;;;1032436;28;20117;-79
2023/03/09 02:31:13;;;;;;;11.35;4.20;;;;;;;;;;1033527;28;20577;-78
2023/03/09 02:31:43;;;;;;;14.45;5.32;;;;;;;;;;1035263;28;20026;-78
2023/03/09 02:32:14;;;;;;;13.13;5.15;;;;;;;;;;1032611;28;20029;-78
2023/03/09 02:32:46;;;;;;;16.42;5.70;;;;;;;;;;1029750;28;20121;-78
2023/03/09 02:33:27;;;;;;;13.15;5.55;;;;;;;;;;1031113;28;20034;-78
2023/03/09 02:34:01;;;;;;;7.10;4.30;;;;;;;;;;1033995;28;20116;-78
2023/03/09 02:34:32;;;;;;;13.23;4.85;;;;;;;;;;1034469;28;20030;-78
2023/03/09 02:35:03;;;;;;;15.88;7.05;;;;;;;;;;1033311;28;20125;-77
2023/03/09 02:35:34;;;;;;;30.77;6.57;;;;;;;;;;1033583;28;20489;-78
2023/03/09 02:36:05;;;;;;;12.32;7.43;;;;;;;;;;1030565;28;20025;-78
2023/03/09 02:36:35;;;;;;;24.70;9.88;;;;;;;;;;1030453;28;20067;-78
2023/03/09 02:37:26;;;;;;;16.08;5.10;;;;;;;;;;1029772;28;20522;-79
2023/03/09 02:37:56;;;;;;;18.38;6.82;;;;;;;;;;1028080;28;20034;-78
2023/03/09 02:38:28;;;;;;;26.95;6.65;;;;;;;;;;1031152;28;20018;-79
2023/03/09 02:39:04;;;;;;;11.68;5.00;;;;;;;;;;1031513;28;20454;-78
2023/03/09 02:39:42;;;;;;;24.23;7.32;;;;;;;;;;1031832;28;20128;-78
2023/03/09 02:40:22;;;;;;;11.40;5.28;;;;;;;;;;1029193;28;20035;-78
2023/03/09 02:40:59;;;;;;;8.15;4.70;;;;;;;;;;1029263;28;20037;-78
2023/03/09 02:41:31;;;;;;;14.07;6.90;;;;;;;;;;1030761;28;20518;-79
2023/03/09 02:42:03;;;;;;;9.50;5.22;;;;;;;;;;1031161;28;20026;-79
2023/03/09 02:42:35;;;;;;;7.13;4.63;;;;;;;;;;1028402;28;20018;-78
2023/03/09 02:43:06;;;;;;;6.93;4.47;;;;;;;;;;1027506;28;20023;-78
2023/03/09 02:43:41;;;;;;;11.23;6.38;;;;;;;;;;1027032;28;20026;-78
2023/03/09 02:44:13;;;;;;;21.08;5.18;;;;;;;;;;1031726;28;20030;-78
2023/03/09 02:44:45;;;;;;;9.30;5.05;;;;;;;;;;1027506;28;20418;-78
2023/03/09 02:45:17;;;;;;;16.48;7.72;;;;;;;;;;1030542;28;20101;-78
2023/03/09 02:45:48;;;;;;;11.43;5.28;;;;;;;;;;1031775;28;20026;-78
2023/03/09 02:46:21;;;;;;;9.23;5.35;;;;;;;;;;1030148;28;20133;-79
2023/03/09 02:46:52;;;;;;;17.05;5.55;;;;;;;;;;1031144;28;20114;-78
2023/03/09 02:47:23;;;;;;;10.60;5.68;;;;;;;;;;1031387;28;20026;-78
2023/03/09 02:47:54;;;;;;;7.25;4.78;;;;;;;;;;1027106;28;20391;-78
2023/03/09 02:48:59;;;;;;;10.88;6.63;;;;;;;;;;1035160;28;20058;-79
2023/03/09 02:49:30;;;;;;;12.23;4.80;;;;;;;;;;1032659;28;20344;-79
2023/03/09 02:50:06;;;;;;;7.32;3.00;;;;;;;;;;1035132;28;20017;-78
2023/03/09 02:50:36;;;;;;;14.45;5.30;;;;;;;;;;1033283;28;20030;-78
2023/03/09 02:51:07;;;;;;;12.48;5.78;;;;;;;;;;1033078;28;20058;-78
2023/03/09 02:51:38;;;;;;;15.85;4.95;;;;;;;;;;1034459;28;20026;-78
2023/03/09 02:52:09;;;;;;;6.47;3.45;;;;;;;;;;1035976;28;20347;-78
2023/03/09 02:52:39;;;;;;;8.10;4.10;;;;;;;;;;1042913;28;20102;-78
2023/03/09 02:53:11;;;;;;;21.73;3.67;;;;;;;;;;1039097;28;20565;-80
2023/03/09 02:53:41;;;;;;;11.05;5.18;;;;;;;;;;1038512;28;20500;-79
2023/03/09 02:54:12;;;;;;;6.43;3.42;;;;;;;;;;1038760;28;20037;-78
2023/03/09 02:54:43;;;;;;;16.00;4.93;;;;;;;;;;1037411;28;20099;-77
2023/03/09 02:55:14;;;;;;;7.05;4.35;;;;;;;;;;1041982;28;20131;-78
2023/03/09 02:55:44;;;;;;;7.60;4.60;;;;;;;;;;1036602;28;20036;-78
2023/03/09 02:56:15;;;;;;;9.85;3.88;;;;;;;;;;1032220;28;20033;-79
2023/03/09 02:56:45;;;;;;;7.78;4.80;;;;;;;;;;1036845;28;20604;-78
2023/03/09 02:57:16;;;;;;;7.18;2.95;;;;;;;;;;1033377;28;20029;-78
2023/03/09 02:57:47;;;;;;;6.43;3.65;;;;;;;;;;1034364;28;20478;-78
2023/03/09 02:58:17;;;;;;;15.73;5.20;;;;;;;;;;1040472;28;20029;-80
2023/03/09 02:58:48;;;;;;;11.00;5.53;;;;;;;;;;1038142;28;20025;-79
2023/03/09 02:59:19;;;;;;;26.92;3.95;;;;;;;;;;1036447;28;20030;-80
2023/03/09 02:59:50;;;;;;;12.65;3.83;;;;;;;;;;1038161;28;20029;-79
2023/03/09 03:00:24;;;;;;;13.00;5.03;;;;;;;;;;1037222;28;20741;-79
2023/03/09 03:00:55;;;;;;;9.00;4.97;;;;;;;;;;1037827;28;20080;-79
2023/03/09 03:01:26;;;;;;;12.35;6.40;;;;;;;;;;1037362;28;20025;-79
2023/03/09 03:01:57;;;;;;;10.25;5.10;;;;;;;;;;1042088;28;20029;-79
2023/03/09 03:02:30;;;;;;;18.63;5.63;;;;;;;;;;1042097;28;20021;-80
2023/03/09 03:03:02;;;;;;;6.75;4.47;;;;;;;;;;1041282;28;20078;-80
2023/03/09 03:03:33;;;;;;;14.18;4.85;;;;;;;;;;1041159;28;20563;-80
2023/03/09 03:04:05;;;;;;;10.32;4.75;;;;;;;;;;1042086;28;20025;-78
2023/03/09 03:04:36;;;;;;;6.93;4.65;;;;;;;;;;1040900;28;20071;-78
2023/03/09 03:05:45;;;;;;;12.77;6.53;;;;;;;;;;1036513;28;20045;-81
2023/03/09 03:06:56;;;;;;;8.25;4.80;;;;;;;;;;1036370;28;20188;-79
2023/03/09 03:07:28;;;;;;;10.35;5.70;;;;;;;;;;1038418;28;20380;-79
2023/03/09 03:07:59;;;;;;;10.45;5.55;;;;;;;;;;1038917;28;20033;-79
2023/03/09 03:08:32;;;;;;;9.68;6.93;;;;;;;;;;1038233;28;20034;-79
2023/03/09 03:09:03;;;;;;;8.77;5.88;;;;;;;;;;1033029;28;20025;-79
2023/03/09 03:09:34;;;;;;;15.65;7.10;;;;;;;;;;1030804;28;20053;-79
2023/03/09 03:10:05;;;;;;;16.67;6.97;;;;;;;;;;1032559;28;20107;-78
2023/03/09 03:10:36;;;;;;;12.13;4.93;;;;;;;;;;1041268;28;20105;-79
2023/03/09 03:11:07;;;;;;;12.90;6.85;;;;;;;;;;1042676;28;20423;-79
2023/03/09 03:11:38;;;;;;;22.08;7.90;;;;;;;;;;1038306;28;20675;-79
2023/03/09 03:12:10;;;;;;;17.02;8.38;;;;;;;;;;1037821;28;20071;-79
2023/03/09 03:12:44;;;;;;;13.13;6.97;;;;;;;;;;1035404;28;20030;-79
2023/03/09 03:13:22;;;;;;;7.70;5.80;;;;;;;;;;1032727;28;20032;-79
2023/03/09 03:13:54;;;;;;;19.08;8.00;;;;;;;;;;1034917;28;20032;-79
2023/03/09 03:14:31;;;;;;;18.58;6.55;;;;;;;;;;1031249;28;20048;-79
2023/03/09 03:15:10;;;;;;;13.35;6.80;;;;;;;;;;1026058;28;20033;-80
2023/03/09 03:15:46;;;;;;;15.32;6.75;;;;;;;;;;1024200;28;20479;-80
2023/03/09 03:16:18;;;;;;;10.73;5.25;;;;;;;;;;1028514;28;20050;-79
2023/03/09 03:16:50;;;;;;;17.88;7.20;;;;;;;;;;1031063;28;20034;-79
2023/03/09 03:17:23;;;;;;;14.68;5.85;;;;;;;;;;1031830;28;20036;-80
2023/03/09 03:17:54;;;;;;;15.32;6.47;;;;;;;;;;1030398;28;20397;-79
2023/03/09 03:18:26;;;;;;;16.42;7.55;;;;;;;;;;1024265;28;20031;-79
2023/03/09 03:18:57;;;;;;;15.68;8.52;;;;;;;;;;1027508;28;20027;-79
2023/03/09 03:19:28;;;;;;;14.63;6.70;;;;;;;;;;1030185;28;20069;-79
2023/03/09 03:20:00;;;;;;;8.70;4.68;;;;;;;;;;1030019;28;20038;-79
2023/03/09 03:20:31;;;;;;;20.13;8.98;;;;;;;;;;1034466;28;20017;-78
2023/03/09 03:21:03;;;;;;;25.30;5.20;;;;;;;;;;1030854;28;20497;-79
2023/03/09 03:21:38;;;;;;;10.20;6.50;;;;;;;;;;1038135;28;20613;-79
2023/03/09 03:22:19;;;;;;;15.35;8.52;;;;;;;;;;1038415;28;20077;-79
2023/03/09 03:22:54;;;;;;;10.18;6.05;;;;;;;;;;1039163;28;20030;-79
2023/03/09 03:23:28;;;;;;;12.30;5.50;;;;;;;;;;1030536;28;20756;-79
2023/03/09 03:23:59;;;;;;;15.15;5.90;;;;;;;;;;1031358;28;20065;-79
2023/03/09 03:24:31;;;;;;;8.85;5.82;;;;;;;;;;1030879;28;20038;-79
2023/03/09 03:25:04;;;;;;;15.35;7.10;;;;;;;;;;1032252;28;20462;-79
2023/03/09 03:25:36;;;;;;;16.77;7.13;;;;;;;;;;1027582;28;20046;-79
2023/03/09 03:26:09;;;;;;;13.00;5.78;;;;;;;;;;1030545;28;20413;-79
2023/03/09 03:26:41;;;;;;;16.60;8.05;;;;;;;;;;1032486;28;20021;-79
2023/03/09 03:27:13;;;;;;;16.10;7.30;;;;;;;;;;1032172;28;20038;-79
2023/03/09 03:27:44;;;;;;;21.65;9.02;;;;;;;;;;1030592;28;20616;-79
2023/03/09 03:28:19;;;;;;;12.45;6.95;;;;;;;;;;1039057;28;20024;-79
2023/03/09 03:28:51;;;;;;;9.05;6.53;;;;;;;;;;1037842;28;20394;-80
2023/03/09 03:29:34;;;;;;;13.00;8.20;;;;;;;;;;1034972;28;20144;-78
2023/03/09 03:30:05;;;;;;;15.55;7.57;;;;;;;;;;1027851;28;20049;-79
2023/03/09 03:30:38;;;;;;;42.80;7.97;;;;;;;;;;1026691;28;20026;-78
2023/03/09 03:31:18;;;;;;;14.00;6.85;;;;;;;;;;1027059;28;20031;-79